sensor_id;sensor_type;location;lat;lon;timestamp;pressure;altitude;pressure_sealevel;temperature;humidity
21129;BME280;10722;51.910;8.352;2022-08-01T00:02:24;100745.91;;;19.07;100.00
21129;BME280;10722;51.910;8.352;2022-08-01T00:05:10;100746.78;;;19.06;100.00
21129;BME280;10722;51.910;8.352;2022-08-01T00:07:55;100743.34;;;19.04;100.00
21129;BME280;10722;51.910;8.352;2022-08-01T00:10:40;100749.41;;;19.08;100.00
21129;BME280;10722;51.910;8.352;2022-08-01T00:13:25;100747.69;;;19.07;100.00
21129;BME280;10722;51.910;8.352;2022-08-01T00:16:10;100746.94;;;18.98;100.00
21129;BME280;10722;51.910;8.352;2022-08-01T00:18:56;100748.72;;;18.98;100.00
21129;BME280;10722;51.910;8.352;2022-08-01T00:21:40;100746.03;;;18.99;100.00
21129;BME280;10722;51.910;8.352;2022-08-01T00:24:36;100748.66;;;19.01;100.00
21129;BME280;10722;51.910;8.352;2022-08-01T00:27:21;100746.78;;;19.06;100.00
21129;BME280;10722;51.910;8.352;2022-08-01T00:30:07;100755.78;;;18.93;100.00
21129;BME280;10722;51.910;8.352;2022-08-01T00:32:56;100745.28;;;18.93;100.00
21129;BME280;10722;51.910;8.352;2022-08-01T00:35:41;100747.81;;;18.99;100.00
21129;BME280;10722;51.910;8.352;2022-08-01T00:38:27;100751.56;;;18.83;100.00
21129;BME280;10722;51.910;8.352;2022-08-01T00:41:12;100747.97;;;18.90;100.00
21129;BME280;10722;51.910;8.352;2022-08-01T00:43:57;100744.56;;;18.83;100.00
21129;BME280;10722;51.910;8.352;2022-08-01T00:46:42;100749.75;;;18.86;100.00
21129;BME280;10722;51.910;8.352;2022-08-01T00:49:28;100742.94;;;18.76;100.00
21129;BME280;10722;51.910;8.352;2022-08-01T00:52:13;100754.25;;;18.79;100.00
21129;BME280;10722;51.910;8.352;2022-08-01T00:54:58;100754.09;;;18.89;100.00
21129;BME280;10722;51.910;8.352;2022-08-01T00:57:44;100754.09;;;18.89;100.00
21129;BME280;10722;51.910;8.352;2022-08-01T01:00:49;100754.13;;;18.86;100.00
21129;BME280;10722;51.910;8.352;2022-08-01T01:03:38;100755.88;;;18.87;100.00
21129;BME280;10722;51.910;8.352;2022-08-01T01:10:09;100750.59;;;18.88;100.00
21129;BME280;10722;51.910;8.352;2022-08-01T01:13:05;100754.13;;;18.86;100.00
21129;BME280;10722;51.910;8.352;2022-08-01T01:16:13;100760.28;;;18.85;100.00
21129;BME280;10722;51.910;8.352;2022-08-01T01:19:01;100748.84;;;18.89;100.00
21129;BME280;10722;51.910;8.352;2022-08-01T01:28:32;100755.78;;;18.93;100.00
21129;BME280;10722;51.910;8.352;2022-08-01T01:31:20;100758.44;;;18.90;100.00
21129;BME280;10722;51.910;8.352;2022-08-01T01:34:07;100760.38;;;18.77;100.00
21129;BME280;10722;51.910;8.352;2022-08-01T01:36:54;100755.84;;;18.90;100.00
21129;BME280;10722;51.910;8.352;2022-08-01T01:39:42;100755.78;;;18.93;100.00
21129;BME280;10722;51.910;8.352;2022-08-01T01:42:33;100758.31;;;18.97;100.00
21129;BME280;10722;51.910;8.352;2022-08-01T01:45:19;100762.91;;;18.85;100.00
21129;BME280;10722;51.910;8.352;2022-08-01T01:48:07;100769.81;;;18.89;100.00
21129;BME280;10722;51.910;8.352;2022-08-01T01:50:53;100769.91;;;18.83;100.00
21129;BME280;10722;51.910;8.352;2022-08-01T01:53:39;100766.38;;;18.87;100.00
21129;BME280;10722;51.910;8.352;2022-08-01T01:56:26;100768.94;;;18.90;100.00
21129;BME280;10722;51.910;8.352;2022-08-01T01:59:12;100769.00;;;18.85;100.00
21129;BME280;10722;51.910;8.352;2022-08-01T02:01:59;100767.19;;;18.90;100.00
21129;BME280;10722;51.910;8.352;2022-08-01T02:04:51;100778.63;;;18.83;100.00
21129;BME280;10722;51.910;8.352;2022-08-01T02:07:39;100770.81;;;18.81;100.00
21129;BME280;10722;51.910;8.352;2022-08-01T02:10:24;100775.09;;;18.86;100.00
21129;BME280;10722;51.910;8.352;2022-08-01T02:13:13;100774.13;;;18.91;100.00
21129;BME280;10722;51.910;8.352;2022-08-01T02:16:00;100772.56;;;18.81;100.00
21129;BME280;10722;51.910;8.352;2022-08-01T02:18:45;100784.06;;;18.69;100.00
21129;BME280;10722;51.910;8.352;2022-08-01T02:21:44;100785.00;;;18.64;100.00
21129;BME280;10722;51.910;8.352;2022-08-01T02:24:41;100793.75;;;18.64;100.00
21129;BME280;10722;51.910;8.352;2022-08-01T02:30:39;100779.72;;;18.67;100.00
21129;BME280;10722;51.910;8.352;2022-08-01T02:33:33;100782.44;;;18.62;100.00
21129;BME280;10722;51.910;8.352;2022-08-01T02:36:20;100785.91;;;18.64;100.00
21129;BME280;10722;51.910;8.352;2022-08-01T02:39:18;100780.81;;;18.53;100.00
21129;BME280;10722;51.910;8.352;2022-08-01T02:42:06;100787.00;;;18.46;100.00
21129;BME280;10722;51.910;8.352;2022-08-01T02:44:53;100789.66;;;18.45;100.00
21129;BME280;10722;51.910;8.352;2022-08-01T02:47:41;100780.78;;;18.55;100.00
21129;BME280;10722;51.910;8.352;2022-08-01T02:50:29;100786.81;;;18.62;100.00
21129;BME280;10722;51.910;8.352;2022-08-01T02:53:18;100789.47;;;18.57;100.00
21129;BME280;10722;51.910;8.352;2022-08-01T02:56:05;100796.44;;;18.58;100.00
21129;BME280;10722;51.910;8.352;2022-08-01T02:58:52;100800.91;;;18.50;100.00
21129;BME280;10722;51.910;8.352;2022-08-01T03:01:38;100807.78;;;18.62;100.00
21129;BME280;10722;51.910;8.352;2022-08-01T03:04:27;100801.06;;;18.42;100.00
21129;BME280;10722;51.910;8.352;2022-08-01T03:07:13;100802.72;;;18.48;100.00
21129;BME280;10722;51.910;8.352;2022-08-01T03:10:00;100800.03;;;18.52;100.00
21129;BME280;10722;51.910;8.352;2022-08-01T03:12:48;100807.81;;;18.58;100.00
21129;BME280;10722;51.910;8.352;2022-08-01T03:15:37;100801.69;;;18.58;100.00
21129;BME280;10722;51.910;8.352;2022-08-01T03:18:24;100805.25;;;18.52;100.00
21129;BME280;10722;51.910;8.352;2022-08-01T03:21:11;100803.53;;;18.50;100.00
21129;BME280;10722;51.910;8.352;2022-08-01T03:24:00;100811.44;;;18.48;100.00
21129;BME280;10722;51.910;8.352;2022-08-01T03:26:47;100810.50;;;18.54;100.00
21129;BME280;10722;51.910;8.352;2022-08-01T03:29:33;100817.41;;;18.58;100.00
21129;BME280;10722;51.910;8.352;2022-08-01T03:32:19;100821.91;;;18.48;100.00
21129;BME280;10722;51.910;8.352;2022-08-01T03:35:06;100815.63;;;18.60;100.00
21129;BME280;10722;51.910;8.352;2022-08-01T03:37:53;100822.69;;;18.56;100.00
21129;BME280;10722;51.910;8.352;2022-08-01T03:41:10;100824.59;;;18.44;100.00
21129;BME280;10722;51.910;8.352;2022-08-01T03:44:05;100816.63;;;18.50;100.00
21129;BME280;10722;51.910;8.352;2022-08-01T03:47:01;100826.25;;;18.49;100.00
21129;BME280;10722;51.910;8.352;2022-08-01T03:49:47;100826.16;;;18.57;100.00
21129;BME280;10722;51.910;8.352;2022-08-01T03:52:34;100825.34;;;18.53;100.00
21129;BME280;10722;51.910;8.352;2022-08-01T03:55:23;100833.16;;;18.55;100.00
21129;BME280;10722;51.910;8.352;2022-08-01T03:58:09;100829.69;;;18.54;100.00
21129;BME280;10722;51.910;8.352;2022-08-01T04:01:01;100827.94;;;18.55;100.00
21129;BME280;10722;51.910;8.352;2022-08-01T04:04:03;100826.38;;;18.42;100.00
21129;BME280;10722;51.910;8.352;2022-08-01T04:06:48;100822.88;;;18.43;100.00
21129;BME280;10722;51.910;8.352;2022-08-01T04:09:34;100818.44;;;18.48;100.00
21129;BME280;10722;51.910;8.352;2022-08-01T04:12:22;100823.59;;;18.54;100.00
21129;BME280;10722;51.910;8.352;2022-08-01T04:15:28;100818.22;;;18.63;100.00
21129;BME280;10722;51.910;8.352;2022-08-01T04:18:13;100829.69;;;18.56;100.00
21129;BME280;10722;51.910;8.352;2022-08-01T04:20:59;100835.69;;;18.63;100.00
21129;BME280;10722;51.910;8.352;2022-08-01T04:23:45;100835.69;;;18.64;100.00
21129;BME280;10722;51.910;8.352;2022-08-01T04:26:36;100839.19;;;18.63;100.00
21129;BME280;10722;51.910;8.352;2022-08-01T04:29:23;100835.59;;;18.69;100.00
21129;BME280;10722;51.910;8.352;2022-08-01T04:32:11;100836.47;;;18.71;100.00
21129;BME280;10722;51.910;8.352;2022-08-01T04:34:59;100850.47;;;18.68;100.00
21129;BME280;10722;51.910;8.352;2022-08-01T04:37:45;100849.56;;;18.71;100.00
21129;BME280;10722;51.910;8.352;2022-08-01T04:40:34;100850.47;;;18.68;100.00
21129;BME280;10722;51.910;8.352;2022-08-01T04:43:20;100851.31;;;18.69;100.00
21129;BME280;10722;51.910;8.352;2022-08-01T04:46:07;100853.09;;;18.70;100.00
21129;BME280;10722;51.910;8.352;2022-08-01T04:48:53;100857.41;;;18.75;100.00
21129;BME280;10722;51.910;8.352;2022-08-01T04:51:50;100859.19;;;18.70;100.00
21129;BME280;10722;51.910;8.352;2022-08-01T04:54:36;100862.66;;;18.75;100.00
21129;BME280;10722;51.910;8.352;2022-08-01T04:57:21;100860.03;;;18.75;100.00
21129;BME280;10722;51.910;8.352;2022-08-01T05:00:07;100870.47;;;18.78;100.00
21129;BME280;10722;51.910;8.352;2022-08-01T05:02:53;100861.75;;;18.73;100.00
21129;BME280;10722;51.910;8.352;2022-08-01T05:05:42;100858.31;;;18.70;100.00
21129;BME280;10722;51.910;8.352;2022-08-01T05:08:40;100869.63;;;18.73;100.00
21129;BME280;10722;51.910;8.352;2022-08-01T05:11:26;100859.94;;;18.81;100.00
21129;BME280;10722;51.910;8.352;2022-08-01T05:14:12;100871.31;;;18.79;100.00
21129;BME280;10722;51.910;8.352;2022-08-01T05:17:07;100869.41;;;18.90;100.00
21129;BME280;10722;51.910;8.352;2022-08-01T05:19:52;100866.78;;;18.90;100.00
21129;BME280;10722;51.910;8.352;2022-08-01T05:22:38;100864.13;;;18.92;100.00
21129;BME280;10722;51.910;8.352;2022-08-01T05:25:26;100867.59;;;18.94;100.00
21129;BME280;10722;51.910;8.352;2022-08-01T05:28:31;100867.66;;;18.89;100.00
21129;BME280;10722;51.910;8.352;2022-08-01T05:31:25;100874.56;;;18.95;100.00
21129;BME280;10722;51.910;8.352;2022-08-01T05:34:10;100878.09;;;18.94;100.00
21129;BME280;10722;51.910;8.352;2022-08-01T05:37:21;100883.25;;;19.00;100.00
21129;BME280;10722;51.910;8.352;2022-08-01T05:40:13;100879.66;;;19.07;100.00
21129;BME280;10722;51.910;8.352;2022-08-01T05:42:58;100880.56;;;19.03;100.00
21129;BME280;10722;51.910;8.352;2022-08-01T05:45:44;100882.38;;;19.01;100.00
21129;BME280;10722;51.910;8.352;2022-08-01T05:48:29;100878.78;;;19.07;100.00
21129;BME280;10722;51.910;8.352;2022-08-01T05:51:14;100878.66;;;19.14;100.00
21129;BME280;10722;51.910;8.352;2022-08-01T05:54:00;100878.66;;;19.14;100.00
21129;BME280;10722;51.910;8.352;2022-08-01T05:56:45;100888.47;;;19.01;100.00
21129;BME280;10722;51.910;8.352;2022-08-01T05:59:31;100891.16;;;18.97;100.00
21129;BME280;10722;51.910;8.352;2022-08-01T06:02:16;100897.16;;;19.05;100.00
21129;BME280;10722;51.910;8.352;2022-08-01T06:05:01;100887.38;;;19.16;100.00
21129;BME280;10722;51.910;8.352;2022-08-01T06:07:47;100897.09;;;19.08;100.00
21129;BME280;10722;51.910;8.352;2022-08-01T06:10:32;100898.88;;;19.06;100.00
21129;BME280;10722;51.910;8.352;2022-08-01T06:13:18;100895.44;;;19.04;100.00
21129;BME280;10722;51.910;8.352;2022-08-01T06:16:30;100898.72;;;19.17;100.00
21129;BME280;10722;51.910;8.352;2022-08-01T06:19:15;100898.44;;;19.35;100.00
21129;BME280;10722;51.910;8.352;2022-08-01T06:22:04;100904.75;;;19.23;100.00
21129;BME280;10722;51.910;8.352;2022-08-01T06:24:49;100905.47;;;19.33;100.00
21129;BME280;10722;51.910;8.352;2022-08-01T06:27:35;100899.31;;;19.34;100.00
21129;BME280;10722;51.910;8.352;2022-08-01T06:30:20;100913.94;;;19.51;100.00
21129;BME280;10722;51.910;8.352;2022-08-01T06:33:05;100903.47;;;19.49;100.00
21129;BME280;10722;51.910;8.352;2022-08-01T06:35:50;100907.13;;;19.40;100.00
21129;BME280;10722;51.910;8.352;2022-08-01T06:38:35;100912.22;;;19.48;100.00
21129;BME280;10722;51.910;8.352;2022-08-01T06:41:20;100911.19;;;19.58;100.00
21129;BME280;10722;51.910;8.352;2022-08-01T06:44:06;100918.88;;;19.70;100.00
21129;BME280;10722;51.910;8.352;2022-08-01T06:46:51;100908.19;;;19.83;100.00
21129;BME280;10722;51.910;8.352;2022-08-01T06:49:36;100901.41;;;19.68;100.00
21129;BME280;10722;51.910;8.352;2022-08-01T06:52:21;100909.38;;;19.62;100.00
21129;BME280;10722;51.910;8.352;2022-08-01T06:55:07;100906.59;;;19.73;100.00
21129;BME280;10722;51.910;8.352;2022-08-01T06:57:53;100910.75;;;19.84;100.00
21129;BME280;10722;51.910;8.352;2022-08-01T07:00:38;100914.16;;;19.91;100.00
21129;BME280;10722;51.910;8.352;2022-08-01T07:03:24;100916.63;;;20.00;100.00
21129;BME280;10722;51.910;8.352;2022-08-01T07:06:11;100918.41;;;19.98;100.00
21129;BME280;10722;51.910;8.352;2022-08-01T07:08:59;100915.69;;;20.03;100.00
21129;BME280;10722;51.910;8.352;2022-08-01T07:11:53;100914.19;;;19.89;100.00
21129;BME280;10722;51.910;8.352;2022-08-01T07:14:39;100905.22;;;20.01;100.00
21129;BME280;10722;51.910;8.352;2022-08-01T07:17:24;100907.56;;;20.17;100.00
21129;BME280;10722;51.910;8.352;2022-08-01T07:20:11;100914.53;;;20.18;100.00
21129;BME280;10722;51.910;8.352;2022-08-01T07:23:00;100920.16;;;19.99;100.00
21129;BME280;10722;51.910;8.352;2022-08-01T07:25:46;100918.34;;;20.01;100.00
21129;BME280;10722;51.910;8.352;2022-08-01T07:28:36;100918.03;;;20.18;100.00
21129;BME280;10722;51.910;8.352;2022-08-01T07:31:28;100918.56;;;20.35;100.00
21129;BME280;10722;51.910;8.352;2022-08-01T07:34:16;100908.03;;;20.35;100.00
21129;BME280;10722;51.910;8.352;2022-08-01T07:37:00;100912.13;;;20.53;100.00
21129;BME280;10722;51.910;8.352;2022-08-01T07:39:46;100912.31;;;20.85;100.00
21129;BME280;10722;51.910;8.352;2022-08-01T07:42:34;100906.63;;;21.03;100.00
21129;BME280;10722;51.910;8.352;2022-08-01T07:45:20;100919.00;;;20.99;100.00
21129;BME280;10722;51.910;8.352;2022-08-01T07:48:06;100922.69;;;20.92;100.00
21129;BME280;10722;51.910;8.352;2022-08-01T07:50:53;100920.38;;;20.77;100.00
21129;BME280;10722;51.910;8.352;2022-08-01T07:53:38;100921.00;;;20.88;100.00
21129;BME280;10722;51.910;8.352;2022-08-01T07:56:24;100920.16;;;20.86;100.00
21129;BME280;10722;51.910;8.352;2022-08-01T07:59:09;100923.75;;;20.84;100.00
21129;BME280;10722;51.910;8.352;2022-08-01T08:01:54;100912.09;;;20.94;100.00
21129;BME280;10722;51.910;8.352;2022-08-01T08:04:40;100920.56;;;21.08;100.00
21129;BME280;10722;51.910;8.352;2022-08-01T08:07:32;100926.25;;;21.27;100.00
21129;BME280;10722;51.910;8.352;2022-08-01T08:10:18;100927.91;;;21.31;100.00
21129;BME280;10722;51.910;8.352;2022-08-01T08:13:03;100921.91;;;21.26;100.00
21129;BME280;10722;51.910;8.352;2022-08-01T08:15:49;100921.66;;;21.38;99.70
21129;BME280;10722;51.910;8.352;2022-08-01T08:18:34;100935.03;;;21.27;100.00
21129;BME280;10722;51.910;8.352;2022-08-01T08:21:19;100935.63;;;21.01;100.00
21129;BME280;10722;51.910;8.352;2022-08-01T08:24:06;100953.25;;;20.98;100.00
21129;BME280;10722;51.910;8.352;2022-08-01T08:26:58;100945.63;;;21.23;100.00
21129;BME280;10722;51.910;8.352;2022-08-01T08:29:43;100927.13;;;21.27;100.00
21129;BME280;10722;51.910;8.352;2022-08-01T08:32:29;100934.00;;;21.33;99.74
21129;BME280;10722;51.910;8.352;2022-08-01T08:35:15;100929.38;;;21.44;98.79
21129;BME280;10722;51.910;8.352;2022-08-01T08:38:21;100936.97;;;21.57;98.94
21129;BME280;10722;51.910;8.352;2022-08-01T08:41:13;100939.59;;;21.57;99.67
21129;BME280;10722;51.910;8.352;2022-08-01T08:44:06;100940.81;;;21.43;98.37
21129;BME280;10722;51.910;8.352;2022-08-01T08:46:55;100950.38;;;21.47;99.85
21129;BME280;10722;51.910;8.352;2022-08-01T08:49:43;100950.44;;;21.44;100.00
21129;BME280;10722;51.910;8.352;2022-08-01T08:52:35;100955.47;;;21.54;100.00
21129;BME280;10722;51.910;8.352;2022-08-01T08:55:23;100942.84;;;21.68;99.01
21129;BME280;10722;51.910;8.352;2022-08-01T08:58:13;100948.06;;;21.69;99.06
21129;BME280;10722;51.910;8.352;2022-08-01T09:00:58;100955.53;;;21.52;99.42
21129;BME280;10722;51.910;8.352;2022-08-01T09:03:44;100950.53;;;21.77;99.13
21129;BME280;10722;51.910;8.352;2022-08-01T09:06:30;100943.13;;;21.91;96.75
21129;BME280;10722;51.910;8.352;2022-08-01T09:09:16;100942.56;;;21.80;95.00
21129;BME280;10722;51.910;8.352;2022-08-01T09:12:02;100969.91;;;21.75;98.46
21129;BME280;10722;51.910;8.352;2022-08-01T09:14:47;100959.44;;;21.71;97.69
21129;BME280;10722;51.910;8.352;2022-08-01T09:17:40;100982.38;;;21.66;99.67
21129;BME280;10722;51.910;8.352;2022-08-01T09:20:25;100982.22;;;21.74;99.97
21129;BME280;10722;51.910;8.352;2022-08-01T09:23:31;100986.63;;;21.72;100.00
21129;BME280;10722;51.910;8.352;2022-08-01T09:26:19;100991.47;;;21.53;100.00
21129;BME280;10722;51.910;8.352;2022-08-01T09:29:07;101005.41;;;21.58;100.00
21129;BME280;10722;51.910;8.352;2022-08-01T09:31:55;100991.31;;;21.59;100.00
21129;BME280;10722;51.910;8.352;2022-08-01T09:34:40;101004.75;;;21.48;100.00
21129;BME280;10722;51.910;8.352;2022-08-01T09:37:30;100998.66;;;21.46;100.00
21129;BME280;10722;51.910;8.352;2022-08-01T09:40:21;100999.38;;;21.53;100.00
21129;BME280;10722;51.910;8.352;2022-08-01T09:43:11;100991.38;;;21.58;100.00
21129;BME280;10722;51.910;8.352;2022-08-01T09:46:04;100999.59;;;21.42;99.50
21129;BME280;10722;51.910;8.352;2022-08-01T09:49:02;101009.25;;;21.01;100.00
21129;BME280;10722;51.910;8.352;2022-08-01T09:51:55;101024.91;;;21.09;100.00
21129;BME280;10722;51.910;8.352;2022-08-01T09:55:02;101027.53;;;21.08;100.00
21129;BME280;10722;51.910;8.352;2022-08-01T09:57:55;101019.88;;;20.97;100.00
21129;BME280;10722;51.910;8.352;2022-08-01T10:00:41;101006.63;;;21.01;100.00
21129;BME280;10722;51.910;8.352;2022-08-01T10:03:29;101023.81;;;20.76;100.00
21129;BME280;10722;51.910;8.352;2022-08-01T10:06:23;101033.50;;;20.24;100.00
21129;BME280;10722;51.910;8.352;2022-08-01T10:09:11;101043.13;;;20.24;100.00
21129;BME280;10722;51.910;8.352;2022-08-01T10:11:59;101039.69;;;20.20;100.00
21129;BME280;10722;51.910;8.352;2022-08-01T10:14:47;101033.53;;;20.21;100.00
21129;BME280;10722;51.910;8.352;2022-08-01T10:17:34;101040.44;;;20.28;100.00
21129;BME280;10722;51.910;8.352;2022-08-01T10:20:36;101040.38;;;20.33;100.00
21129;BME280;10722;51.910;8.352;2022-08-01T10:23:22;101037.94;;;20.22;100.00
21129;BME280;10722;51.910;8.352;2022-08-01T10:26:26;101036.91;;;20.31;100.00
21129;BME280;10722;51.910;8.352;2022-08-01T10:29:15;101031.31;;;19.98;100.00
21129;BME280;10722;51.910;8.352;2022-08-01T10:32:22;101038.09;;;20.11;100.00
21129;BME280;10722;51.910;8.352;2022-08-01T10:35:09;101032.66;;;20.22;100.00
21129;BME280;10722;51.910;8.352;2022-08-01T10:37:59;101036.03;;;20.29;100.00
21129;BME280;10722;51.910;8.352;2022-08-01T10:40:45;101036.91;;;20.31;100.00
21129;BME280;10722;51.910;8.352;2022-08-01T10:43:30;101036.03;;;20.29;100.00
21129;BME280;10722;51.910;8.352;2022-08-01T10:46:19;101021.44;;;20.12;100.00
21129;BME280;10722;51.910;8.352;2022-08-01T10:49:07;101035.41;;;20.14;100.00
21129;BME280;10722;51.910;8.352;2022-08-01T10:51:57;101037.81;;;20.27;100.00
21129;BME280;10722;51.910;8.352;2022-08-01T10:54:42;101036.03;;;20.29;100.00
21129;BME280;10722;51.910;8.352;2022-08-01T10:57:45;101042.16;;;20.31;100.00
21129;BME280;10722;51.910;8.352;2022-08-01T11:00:37;101042.31;;;20.22;100.00
21129;BME280;10722;51.910;8.352;2022-08-01T11:03:34;101040.78;;;20.07;100.00
21129;BME280;10722;51.910;8.352;2022-08-01T11:09:43;101047.22;;;19.87;100.00
21129;BME280;10722;51.910;8.352;2022-08-01T11:12:40;101050.75;;;19.88;100.00
21129;BME280;10722;51.910;8.352;2022-08-01T11:15:27;101060.25;;;19.97;100.00
21129;BME280;10722;51.910;8.352;2022-08-01T11:21:15;101067.56;;;19.75;100.00
21129;BME280;10722;51.910;8.352;2022-08-01T11:27:35;101068.16;;;19.93;100.00
21129;BME280;10722;51.910;8.352;2022-08-01T11:30:22;101069.91;;;19.93;100.00
21129;BME280;10722;51.910;8.352;2022-08-01T11:33:08;101069.16;;;19.85;100.00
21129;BME280;10722;51.910;8.352;2022-08-01T11:41:43;101063.72;;;19.97;100.00
21129;BME280;10722;51.910;8.352;2022-08-01T11:44:47;101065.28;;;20.10;100.00
21129;BME280;10722;51.910;8.352;2022-08-01T11:53:13;101073.75;;;20.26;100.00
21129;BME280;10722;51.910;8.352;2022-08-01T11:56:00;101067.56;;;20.29;100.00
21129;BME280;10722;51.910;8.352;2022-08-01T11:58:46;101060.44;;;20.35;100.00
21129;BME280;10722;51.910;8.352;2022-08-01T12:01:32;101062.78;;;20.55;100.00
21129;BME280;10722;51.910;8.352;2022-08-01T12:04:18;101058.22;;;20.64;100.00
21129;BME280;10722;51.910;8.352;2022-08-01T12:07:14;101060.75;;;20.68;100.00
21129;BME280;10722;51.910;8.352;2022-08-01T12:10:03;101061.88;;;20.55;100.00
21129;BME280;10722;51.910;8.352;2022-08-01T12:12:54;101064.91;;;20.81;100.00
21129;BME280;10722;51.910;8.352;2022-08-01T12:15:39;101071.66;;;20.95;100.00
21129;BME280;10722;51.910;8.352;2022-08-01T12:18:25;101073.91;;;21.12;100.00
21129;BME280;10722;51.910;8.352;2022-08-01T12:21:11;101075.38;;;21.26;100.00
21129;BME280;10722;51.910;8.352;2022-08-01T12:24:01;101076.56;;;21.54;100.00
21129;BME280;10722;51.910;8.352;2022-08-01T12:26:46;101073.91;;;21.55;100.00
21129;BME280;10722;51.910;8.352;2022-08-01T12:29:40;101070.75;;;21.39;100.00
21129;BME280;10722;51.910;8.352;2022-08-01T12:32:34;101081.53;;;21.25;100.00
21129;BME280;10722;51.910;8.352;2022-08-01T12:35:21;101087.47;;;20.93;100.00
21129;BME280;10722;51.910;8.352;2022-08-01T12:38:14;101095.41;;;20.90;100.00
21129;BME280;10722;51.910;8.352;2022-08-01T12:41:00;101096.63;;;20.72;100.00
21129;BME280;10722;51.910;8.352;2022-08-01T12:43:45;101100.94;;;20.75;100.00
21129;BME280;10722;51.910;8.352;2022-08-01T12:46:30;101102.88;;;20.67;100.00
21129;BME280;10722;51.910;8.352;2022-08-01T12:49:15;101094.25;;;20.58;100.00
21129;BME280;10722;51.910;8.352;2022-08-01T12:52:01;101101.19;;;20.63;100.00
21129;BME280;10722;51.910;8.352;2022-08-01T12:55:00;101097.66;;;20.64;100.00
21129;BME280;10722;51.910;8.352;2022-08-01T12:57:54;101098.50;;;20.66;100.00
21129;BME280;10722;51.910;8.352;2022-08-01T13:00:49;101088.75;;;20.71;100.00
21129;BME280;10722;51.910;8.352;2022-08-01T13:03:35;101094.88;;;20.71;100.00
21129;BME280;10722;51.910;8.352;2022-08-01T13:06:20;101089.81;;;20.62;100.00
21129;BME280;10722;51.910;8.352;2022-08-01T13:09:09;101090.34;;;20.81;100.00
21129;BME280;10722;51.910;8.352;2022-08-01T13:11:55;101083.19;;;20.86;100.00
21129;BME280;10722;51.910;8.352;2022-08-01T13:14:49;101084.50;;;21.10;100.00
21129;BME280;10722;51.910;8.352;2022-08-01T13:17:34;101073.41;;;20.94;100.00
21129;BME280;10722;51.910;8.352;2022-08-01T13:20:28;101073.38;;;20.96;100.00
21129;BME280;10722;51.910;8.352;2022-08-01T13:23:18;101074.09;;;21.04;100.00
21129;BME280;10722;51.910;8.352;2022-08-01T13:26:40;101072.66;;;20.89;100.00
21129;BME280;10722;51.910;8.352;2022-08-01T13:29:37;101063.59;;;21.02;100.00
21129;BME280;10722;51.910;8.352;2022-08-01T13:32:23;101065.94;;;21.18;100.00
21129;BME280;10722;51.910;8.352;2022-08-01T13:35:14;101051.59;;;21.31;99.59
21129;BME280;10722;51.910;8.352;2022-08-01T13:37:59;101041.53;;;21.52;98.47
21129;BME280;10722;51.910;8.352;2022-08-01T13:40:45;101058.56;;;21.74;98.75
21129;BME280;10722;51.910;8.352;2022-08-01T13:43:31;101039.22;;;21.75;94.60
21129;BME280;10722;51.910;8.352;2022-08-01T13:46:38;101058.03;;;21.96;98.20
21129;BME280;10722;51.910;8.352;2022-08-01T13:49:33;101042.03;;;22.05;94.58
21129;BME280;10722;51.910;8.352;2022-08-01T13:52:22;101031.59;;;22.00;90.52
21129;BME280;10722;51.910;8.352;2022-08-01T13:55:07;101074.91;;;21.88;97.46
21129;BME280;10722;51.910;8.352;2022-08-01T13:57:55;101060.41;;;22.06;95.72
21129;BME280;10722;51.910;8.352;2022-08-01T14:00:40;101075.44;;;22.03;96.70
21129;BME280;10722;51.910;8.352;2022-08-01T14:03:26;101078.31;;;21.93;98.88
21129;BME280;10722;51.910;8.352;2022-08-01T14:06:18;101062.13;;;22.09;96.23
21129;BME280;10722;51.910;8.352;2022-08-01T14:09:05;101044.06;;;22.29;94.15
21129;BME280;10722;51.910;8.352;2022-08-01T14:12:02;101013.53;;;22.53;90.02
21129;BME280;10722;51.910;8.352;2022-08-01T14:14:47;101013.16;;;22.67;87.26
21129;BME280;10722;51.910;8.352;2022-08-01T14:17:33;101031.72;;;22.64;88.11
21129;BME280;10722;51.910;8.352;2022-08-01T14:20:22;101057.00;;;22.38;93.02
21129;BME280;10722;51.910;8.352;2022-08-01T14:23:07;101044.22;;;22.23;91.63
21129;BME280;10722;51.910;8.352;2022-08-01T14:25:53;101037.84;;;22.65;90.02
21129;BME280;10722;51.910;8.352;2022-08-01T14:28:49;101038.25;;;22.80;88.51
21129;BME280;10722;51.910;8.352;2022-08-01T14:31:34;101018.63;;;22.91;85.78
21129;BME280;10722;51.910;8.352;2022-08-01T14:34:19;101019.47;;;22.93;85.88
21129;BME280;10722;51.910;8.352;2022-08-01T14:37:04;101036.06;;;22.98;86.91
21129;BME280;10722;51.910;8.352;2022-08-01T14:39:52;101024.97;;;22.52;86.46
21129;BME280;10722;51.910;8.352;2022-08-01T14:42:38;101053.28;;;22.78;87.64
21129;BME280;10722;51.910;8.352;2022-08-01T14:45:24;101052.56;;;22.72;88.31
21129;BME280;10722;51.910;8.352;2022-08-01T14:48:09;101043.09;;;22.97;87.19
21129;BME280;10722;51.910;8.352;2022-08-01T14:50:55;101034.13;;;22.72;85.68
21129;BME280;10722;51.910;8.352;2022-08-01T14:53:40;101045.00;;;22.61;87.44
21129;BME280;10722;51.910;8.352;2022-08-01T14:56:31;101019.84;;;22.48;83.84
21129;BME280;10722;51.910;8.352;2022-08-01T14:59:16;101022.78;;;22.70;84.81
21129;BME280;10722;51.910;8.352;2022-08-01T15:02:06;101017.44;;;22.71;83.30
21129;BME280;10722;51.910;8.352;2022-08-01T15:04:52;101063.97;;;22.74;87.73
21129;BME280;10722;51.910;8.352;2022-08-01T15:07:37;101030.22;;;22.85;85.44
21129;BME280;10722;51.910;8.352;2022-08-01T15:10:38;101032.41;;;23.02;85.22